Kodiak, AK

8:29 AM AKDT on August 21, 2014 (GMT -0800)
Pillar Mountain | Change Station
CLOSE
Current Station
Personal Weather Station
Location: Kodiak, AK
Elevation: 1204 ft
Nearby Weather Stations

Elev 1204 ft 57.79 °N, 152.44 °W | Updated 13 minutes ago

Mostly Cloudy
Mostly Cloudy
55.0 °F
Feels Like 55.0 °F
N
3.7
Wind Variable Wind from SW

Today
High -- | Low -- °F
--% Chance of Precip.
Yesterday
High -- | Low -- °F
Precip. -- in
6:47 AM 9:37 PM
Waning Crescent, 13% visible
Pressure 30.19 in
Visibility 10.0 miles
Clouds Mostly Cloudy 25000 ft
Dew Point 51 °F
Humidity 87%
Rainfall 0.00 in
Snow Depth Not available.
UV 0 out of 12
Pollen Not available.
Air Quality Not available.
Flu Activity Not available.
METAR PADQ 211553Z 00000KT 10SM BKN250 10/08 A3019 RMK AO2 SLP223 T01000083

More Conditions Fewer Conditions

Pressure 30.19 in
Visibility 10.0 miles
Clouds Mostly Cloudy 25000 ft
Dew Point 51 °F
Humidity 87%
Rainfall 0.00 in
Snow Depth Not available.
UV 0 out of 12
Pollen Not available.
Air Quality Not available.
Flu Activity Not available.
METAR PADQ 211553Z 00000KT 10SM BKN250 10/08 A3019 RMK AO2 SLP223 T01000083

More Conditions Fewer Conditions

10-Day Weather Forecast

Almanac

Astronomy

Aug. 21, 2014 Rise Set
Actual Time 6:47 AM AKDT 9:37 PM AKDT
Civil Twilight 6:02 AM AKDT 10:21 PM AKDT
Nautical Twilight 5:02 AM AKDT 11:20 PM AKDT
Astronomical Twilight 3:38 AM AKDT 12:42 AM AKDT
Moon 3:04 AM AKDT 7:30 PM AKDT
Length of Visible Light 16h 18m
Length of Day
14h 49m
Tomorrow will be 4m 47s shorter.
Waning Crescent, 13% of the Moon is Illuminated
Today
Waning Crescent
Aug 25
New
Sep 2
First Quarter
Sep 8
Full
Sep 15
Last Quarter

Today's Extremes

State Highs State Lows

Community

WunderPhotos

Upload Photos

1,745,955 photos uploaded!

Nearby

Snow Depth

Station Depth Elevation
Port Graham 0 in 300 ft
Nuka Glacier 164 in 1250 ft
Mcneil Canyon 1 in 1320 ft
MF Bradley River 4 in 2300 ft
Cooper Lake 18 in 1200 ft

Earthquake Activity

City Distance Mag. Time & Date
No recent earthquake activity has been reported nearby.
Minimum magnitude displayed is 2.5.

Coastal Water Temperatures

Place Temperature
No Stations Reporting

Nearby Weather Stations